createdAt,value
2022-11-14T00:01:29.447Z,976.44
2022-11-14T00:07:54.346Z,976.41
2022-11-14T00:14:16.612Z,976.29
2022-11-14T00:20:36.390Z,976.32
2022-11-14T00:27:02.773Z,976.29
2022-11-14T00:33:22.652Z,976.26
2022-11-14T00:39:50.794Z,976.25
2022-11-14T00:46:16.290Z,976.14
2022-11-14T00:52:40.287Z,976.07
2022-11-14T00:59:01.650Z,975.99
2022-11-14T01:05:24.307Z,976.03
2022-11-14T01:11:50.312Z,975.91
2022-11-14T01:18:16.767Z,975.88
2022-11-14T01:24:43.346Z,975.8
2022-11-14T01:31:13.203Z,975.74
2022-11-14T01:37:36.859Z,975.67
2022-11-14T01:44:10.698Z,975.78
2022-11-14T01:51:00.787Z,975.73
2022-11-14T01:57:48.448Z,975.64
2022-11-14T02:04:29.385Z,975.59
2022-11-14T02:11:05.220Z,975.5
2022-11-14T02:17:41.431Z,975.47
2022-11-14T02:24:07.308Z,975.39
2022-11-14T02:30:32.689Z,975.37
2022-11-14T02:37:00.846Z,975.29
2022-11-14T02:43:27.310Z,975.13
2022-11-14T02:49:49.570Z,975
2022-11-14T02:56:10.637Z,974.97
2022-11-14T03:02:29.400Z,974.92
2022-11-14T03:08:51.984Z,974.94
2022-11-14T03:15:16.480Z,974.88
2022-11-14T03:21:43.698Z,974.68
2022-11-14T03:28:13.298Z,974.64
2022-11-14T03:34:42.511Z,974.56
2022-11-14T03:41:05.390Z,974.57
2022-11-14T03:47:32.374Z,974.59
2022-11-14T03:53:58.511Z,974.65
2022-11-14T04:00:25.316Z,974.54
2022-11-14T04:06:59.204Z,974.53
2022-11-14T04:13:31.914Z,974.53
2022-11-14T04:19:56.874Z,974.42
2022-11-14T04:26:25.367Z,974.38
2022-11-14T04:32:44.514Z,974.31
2022-11-14T04:39:09.430Z,974.27
2022-11-14T04:45:35.462Z,974.35
2022-11-14T04:52:07.406Z,974.34
2022-11-14T04:58:39.357Z,974.33
2022-11-14T05:05:05.224Z,974.23
2022-11-14T05:11:29.978Z,974.07
2022-11-14T05:17:52.416Z,973.98
2022-11-14T05:24:12.423Z,973.82
2022-11-14T05:30:33.563Z,973.88
2022-11-14T05:36:55.445Z,974.04
2022-11-14T05:43:14.832Z,974.1
2022-11-14T05:49:36.455Z,973.98
2022-11-14T05:56:11.285Z,973.87
2022-11-14T06:02:36.436Z,973.87
2022-11-14T06:09:01.419Z,973.74
2022-11-14T06:15:36.460Z,973.67
2022-11-14T06:22:03.294Z,973.66
2022-11-14T06:28:24.009Z,973.71
2022-11-14T06:34:52.508Z,973.66
2022-11-14T06:41:12.459Z,973.54
2022-11-14T06:47:46.617Z,973.54
2022-11-14T06:54:14.602Z,973.63
2022-11-14T07:00:40.789Z,973.86
2022-11-14T07:07:09.631Z,973.87
2022-11-14T07:13:46.532Z,973.87
2022-11-14T07:20:19.680Z,973.79
2022-11-14T07:26:52.839Z,973.63
2022-11-14T07:33:13.364Z,973.59
2022-11-14T07:39:40.471Z,973.69
2022-11-14T07:46:12.514Z,973.61
2022-11-14T07:52:40.963Z,973.57
2022-11-14T07:59:18.639Z,973.52
2022-11-14T08:05:46.720Z,973.47
2022-11-14T08:12:11.761Z,973.46
2022-11-14T08:18:39.298Z,973.65
2022-11-14T08:25:00.511Z,973.73
2022-11-14T08:31:25.451Z,973.6
2022-11-14T08:37:51.801Z,973.56
2022-11-14T08:44:17.356Z,973.58
2022-11-14T08:50:47.376Z,973.64
2022-11-14T08:57:07.434Z,973.64
2022-11-14T09:03:33.219Z,973.63
2022-11-14T09:09:54.456Z,973.62
2022-11-14T09:16:16.519Z,973.57
2022-11-14T09:22:37.580Z,973.52
2022-11-14T09:28:58.410Z,973.52
2022-11-14T09:35:32.847Z,973.63
2022-11-14T09:42:17.855Z,973.64
2022-11-14T09:49:14.859Z,973.68
2022-11-14T09:56:18.466Z,973.65
2022-11-14T10:03:00.555Z,973.52
2022-11-14T10:10:12.532Z,973.41
2022-11-14T10:17:16.537Z,973.45
2022-11-14T10:24:26.270Z,973.43
2022-11-14T10:31:25.760Z,973.26
2022-11-14T10:38:39.922Z,973.16
2022-11-14T10:45:43.001Z,973.22
2022-11-14T10:52:49.502Z,973.15
2022-11-14T10:59:30.424Z,973.09
2022-11-14T11:06:25.535Z,973
2022-11-14T11:13:20.615Z,973.04
2022-11-14T11:20:32.572Z,972.99
2022-11-14T11:27:14.569Z,972.97
2022-11-14T11:33:57.761Z,972.93
2022-11-14T11:40:42.504Z,972.91
2022-11-14T11:47:37.375Z,972.93
2022-11-14T11:54:28.570Z,972.9
2022-11-14T12:01:21.689Z,972.9
2022-11-14T12:08:08.622Z,972.88
2022-11-14T12:15:11.969Z,972.82
2022-11-14T12:22:11.476Z,972.84
2022-11-14T12:29:03.969Z,972.86
2022-11-14T12:36:02.683Z,972.85
2022-11-14T12:43:03.614Z,972.79
2022-11-14T12:50:17.820Z,972.76
2022-11-14T12:58:22.701Z,972.62
2022-11-14T13:06:27.452Z,972.48
2022-11-14T13:14:36.135Z,972.49
2022-11-14T13:22:35.866Z,972.53
2022-11-14T13:30:24.149Z,972.41
2022-11-14T13:38:15.699Z,972.37
2022-11-14T13:47:00.702Z,972.28
2022-11-14T13:54:03.952Z,972.34
2022-11-14T14:01:10.612Z,972.4
2022-11-14T14:08:23.246Z,972.25
2022-11-14T14:15:31.341Z,972.23
2022-11-14T14:22:48.293Z,972.24
2022-11-14T14:30:07.172Z,972.28
2022-11-14T14:37:03.532Z,972.23
2022-11-14T14:44:09.460Z,972.22
2022-11-14T14:52:01.813Z,972.11
2022-11-14T15:00:10.202Z,972.17
2022-11-14T15:08:25.458Z,972.16
2022-11-14T15:16:23.218Z,972.17
2022-11-14T15:24:39.637Z,972.21
2022-11-14T15:32:48.061Z,972.26
2022-11-14T15:40:54.996Z,972.36
2022-11-14T15:48:44.387Z,972.42
2022-11-14T15:56:15.978Z,972.48
2022-11-14T16:04:00.940Z,972.51
2022-11-14T16:11:08.303Z,972.56
2022-11-14T16:18:18.905Z,972.66
2022-11-14T16:25:10.205Z,972.71
2022-11-14T16:32:17.092Z,972.76
2022-11-14T16:39:05.059Z,972.87
2022-11-14T16:46:04.832Z,972.94
2022-11-14T16:53:14.954Z,972.93
2022-11-14T17:00:34.802Z,973
2022-11-14T17:07:42.002Z,973.02
2022-11-14T17:14:48.794Z,973.01
2022-11-14T17:21:52.094Z,973.02
2022-11-14T17:28:58.331Z,973.01
2022-11-14T17:36:00.002Z,973.01
2022-11-14T17:42:55.949Z,973.07
2022-11-14T17:50:19.258Z,973.09
2022-11-14T17:57:35.453Z,973.1
2022-11-14T18:04:47.657Z,973.11
2022-11-14T18:11:50.378Z,973.15
2022-11-14T18:18:51.228Z,973.21
2022-11-14T18:25:47.744Z,973.26
2022-11-14T18:32:45.071Z,973.32
2022-11-14T18:39:47.868Z,973.37
2022-11-14T18:46:46.526Z,973.38
2022-11-14T18:53:44.240Z,973.38
2022-11-14T19:00:49.847Z,973.37
2022-11-14T19:07:52.201Z,973.35
2022-11-14T19:14:48.371Z,973.39
2022-11-14T19:21:46.946Z,973.36
2022-11-14T19:28:50.170Z,973.36
2022-11-14T19:35:52.184Z,973.35
2022-11-14T19:42:52.087Z,973.37
2022-11-14T19:49:53.164Z,973.39
2022-11-14T19:57:01.638Z,973.35
2022-11-14T20:03:54.168Z,973.44
2022-11-14T20:11:06.131Z,973.4
2022-11-14T20:18:17.026Z,973.44
2022-11-14T20:25:26.186Z,973.47
2022-11-14T20:32:30.522Z,973.53
2022-11-14T20:39:25.000Z,973.59
2022-11-14T20:46:19.400Z,973.64
2022-11-14T20:53:28.313Z,973.68
2022-11-14T21:00:31.092Z,973.64
2022-11-14T21:07:32.450Z,973.61
2022-11-14T21:14:43.729Z,973.55
2022-11-14T21:21:39.339Z,973.47
2022-11-14T21:28:38.215Z,973.64
2022-11-14T21:35:54.422Z,973.63
2022-11-14T21:42:49.657Z,973.69
2022-11-14T21:50:02.292Z,973.72
2022-11-14T21:57:13.650Z,973.71
2022-11-14T22:04:19.961Z,973.7
2022-11-14T22:11:39.276Z,973.68
2022-11-14T22:18:30.954Z,973.67
2022-11-14T22:25:45.702Z,973.64
2022-11-14T22:32:55.392Z,973.61
2022-11-14T22:39:58.325Z,973.55
2022-11-14T22:47:03.730Z,973.53
2022-11-14T22:54:17.078Z,973.5
2022-11-14T23:01:33.090Z,973.44
2022-11-14T23:08:35.116Z,973.38
2022-11-14T23:15:44.590Z,973.33
2022-11-14T23:22:41.285Z,973.26
2022-11-14T23:30:03.777Z,973.25
2022-11-14T23:37:21.695Z,973.14
2022-11-14T23:44:13.366Z,973.02
2022-11-14T23:50:49.069Z,972.98
2022-11-14T23:58:02.637Z,972.96
